Time;durP1;ratioP1;P1;durP2;ratioP2;P2;SDS_P1;SDS_P2;PMS_P1;PMS_P2;Temp;Humidity;BMP_temperature;BMP_pressure;BME280_temperature;BME280_humidity;BME280_pressure;Samples;Min_cycle;Max_cycle;Signal;HPM_P1;HPM_P2
2022/01/07 00:01:08;;;;;;;;;19.50;14.75;;;;;5.52;61.25;101096.19;5040125;28;45328;-64
2022/01/07 00:03:34;;;;;;;;;19.00;15.00;;;;;5.49;61.87;101094.56;5035852;28;45238;-63
2022/01/07 00:05:59;;;;;;;;;26.25;19.50;;;;;5.47;62.21;101087.78;5052264;28;62639;-63
2022/01/07 00:08:26;;;;;;;;;24.50;17.25;;;;;5.44;62.59;101083.56;5052453;28;46207;-63
2022/01/07 00:10:51;;;;;;;;;17.50;15.00;;;;;5.42;62.50;101067.19;5037207;28;45315;-64
2022/01/07 00:13:17;;;;;;;;;16.25;16.00;;;;;5.36;62.86;101064.94;5036518;28;60730;-64
2022/01/07 00:15:42;;;;;;;;;20.00;15.00;;;;;5.33;62.81;101055.53;5036339;28;64212;-65
2022/01/07 00:18:07;;;;;;;;;17.25;11.50;;;;;5.26;63.60;101064.63;5036926;28;46897;-63
2022/01/07 00:20:34;;;;;;;;;15.25;14.00;;;;;5.22;64.08;101065.72;5035200;28;45362;-63
2022/01/07 00:22:59;;;;;;;;;16.75;14.00;;;;;5.19;64.17;101061.56;5036928;28;45383;-63
2022/01/07 00:25:24;;;;;;;;;19.50;14.75;;;;;5.18;64.56;101059.88;5035176;28;60051;-64
2022/01/07 00:27:50;;;;;;;;;18.50;15.00;;;;;5.16;64.62;101051.31;5035530;28;45971;-65
2022/01/07 00:30:16;;;;;;;;;13.75;13.50;;;;;5.15;64.58;101046.16;5036842;28;45264;-63
2022/01/07 00:32:41;;;;;;;;;15.00;12.75;;;;;5.12;64.61;101042.00;5036924;28;45395;-63
2022/01/07 00:35:09;;;;;;;;;16.25;14.75;;;;;5.11;65.12;101037.69;5052328;28;45585;-64
2022/01/07 00:37:35;;;;;;;;;14.00;12.50;;;;;5.13;64.97;101040.22;5052181;28;45512;-62
2022/01/07 00:40:00;;;;;;;;;14.50;11.75;;;;;5.10;65.28;101042.97;5036457;28;49340;-63
2022/01/07 00:42:26;;;;;;;;;12.75;9.75;;;;;5.05;65.29;101020.66;5052072;28;45391;-62
2022/01/07 00:44:51;;;;;;;;;13.75;12.00;;;;;5.03;65.46;101026.88;5036001;28;61877;-64
2022/01/07 00:47:16;;;;;;;;;18.75;12.25;;;;;5.00;65.91;101034.88;5036416;28;46235;-63
2022/01/07 00:49:43;;;;;;;;;13.25;12.00;;;;;4.98;66.17;101015.88;5035185;28;45417;-64
2022/01/07 00:52:08;;;;;;;;;19.75;12.25;;;;;4.94;66.21;101012.63;5036498;28;45364;-63
2022/01/07 00:54:33;;;;;;;;;13.00;12.00;;;;;4.89;66.56;101020.69;5036217;28;45474;-62
2022/01/07 00:56:59;;;;;;;;;15.50;13.00;;;;;4.88;66.59;101013.81;5036193;28;47373;-63
2022/01/07 00:59:24;;;;;;;;;13.00;13.00;;;;;4.82;66.69;101014.16;5035222;28;72400;-63
2022/01/07 01:01:49;;;;;;;;;14.50;10.25;;;;;4.75;66.84;101012.84;5034153;28;61520;-63
2022/01/07 01:04:15;;;;;;;;;13.25;12.50;;;;;4.72;67.29;101007.81;5051738;28;45308;-64
2022/01/07 01:06:41;;;;;;;;;19.00;14.00;;;;;4.69;67.48;101010.59;5034372;28;59308;-64
2022/01/07 01:09:07;;;;;;;;;9.75;8.00;;;;;4.67;67.95;101015.03;5051553;28;45333;-62
2022/01/07 01:11:33;;;;;;;;;13.50;11.50;;;;;4.62;67.94;101004.84;5034956;28;45278;-65
2022/01/07 01:13:58;;;;;;;;;12.50;8.00;;;;;4.58;68.41;101001.59;5036241;28;45162;-64
2022/01/07 01:16:24;;;;;;;;;14.00;10.00;;;;;4.55;68.37;101004.38;5050602;28;68087;-64
2022/01/07 01:18:49;;;;;;;;;16.00;10.50;;;;;4.51;68.61;101010.66;5035664;28;55513;-63
2022/01/07 01:21:14;;;;;;;;;10.00;9.00;;;;;4.48;68.98;101004.81;5035290;28;66049;-62
2022/01/07 01:23:44;;;;;;;;;12.00;8.00;;;;;4.48;68.75;100991.81;5035824;28;45969;-65
2022/01/07 01:26:10;;;;;;;;;9.00;8.00;;;;;4.45;69.12;100990.19;5034510;28;47074;-63
2022/01/07 01:28:35;;;;;;;;;7.50;7.50;;;;;4.45;69.01;100991.03;5050639;28;66776;-63
2022/01/07 01:31:00;;;;;;;;;10.50;8.00;;;;;4.47;69.31;100979.72;5035626;28;63416;-65
2022/01/07 01:33:26;;;;;;;;;12.75;8.00;;;;;4.47;69.52;100983.13;5038919;28;58925;-63
2022/01/07 01:35:51;;;;;;;;;11.50;9.00;;;;;4.48;69.79;100992.63;5038557;28;66879;-66
2022/01/07 01:38:17;;;;;;;;;9.25;9.00;;;;;4.51;69.51;100987.25;5038606;28;66371;-65
2022/01/07 01:40:42;;;;;;;;;11.00;9.00;;;;;4.53;69.39;100997.56;5039339;28;45309;-63
2022/01/07 01:43:07;;;;;;;;;9.00;9.00;;;;;4.54;69.29;101002.69;5039292;28;45358;-63
2022/01/07 01:45:33;;;;;;;;;11.25;8.00;;;;;4.55;69.26;101001.78;5038362;28;67888;-62
2022/01/07 01:47:58;;;;;;;;;11.50;8.50;;;;;4.56;69.37;101000.00;5054241;28;55785;-63
2022/01/07 01:50:23;;;;;;;;;10.25;8.00;;;;;4.55;68.96;100999.16;5038341;28;65384;-64
2022/01/07 01:52:53;;;;;;;;;17.50;11.25;;;;;4.56;69.01;100998.25;5039274;28;45359;-63
2022/01/07 01:55:19;;;;;;;;;10.25;9.50;;;;;4.56;69.09;100987.84;5037512;28;45514;-62
2022/01/07 01:57:45;;;;;;;;;10.25;9.00;;;;;4.54;69.16;100994.88;5054407;28;46492;-64
2022/01/07 02:00:11;;;;;;;;;9.00;8.00;;;;;4.54;69.47;100984.47;5037964;28;45354;-65
2022/01/07 02:02:36;;;;;;;;;13.25;11.50;;;;;4.57;69.48;100976.50;5054526;28;45578;-63
2022/01/07 02:05:03;;;;;;;;;11.75;10.00;;;;;4.57;69.31;100989.50;5038907;28;45483;-64
2022/01/07 02:07:28;;;;;;;;;11.50;7.25;;;;;4.58;69.02;100986.00;5054557;28;45450;-62
2022/01/07 02:09:54;;;;;;;;;12.00;10.75;;;;;4.60;69.30;100983.28;5038047;28;66690;-65
2022/01/07 02:12:20;;;;;;;;;12.25;8.75;;;;;4.59;69.37;100982.47;5038961;28;45294;-62
2022/01/07 02:14:52;;;;;;;;;11.00;8.00;;;;;4.62;69.23;100980.59;5037713;28;75371;-64
2022/01/07 02:17:17;;;;;;;;;9.75;9.75;;;;;4.62;69.21;100975.41;5038865;28;45256;-65
2022/01/07 02:19:43;;;;;;;;;8.00;7.50;;;;;4.62;69.62;100978.84;5037106;28;58894;-64
2022/01/07 02:22:08;;;;;;;;;11.25;8.75;;;;;4.64;69.52;100968.34;5053543;28;64068;-65
2022/01/07 02:24:35;;;;;;;;;10.00;8.25;;;;;4.67;69.57;100966.41;5038296;28;59104;-63
2022/01/07 02:27:00;;;;;;;;;10.75;8.75;;;;;4.68;69.48;100965.47;5038734;28;45954;-62
2022/01/07 02:29:26;;;;;;;;;12.25;10.00;;;;;4.70;69.21;100962.81;5054226;28;45351;-62
2022/01/07 02:31:52;;;;;;;;;10.00;9.00;;;;;4.70;69.39;100963.63;5054371;28;45681;-63
2022/01/07 02:34:17;;;;;;;;;10.25;10.25;;;;;4.73;69.62;100962.63;5037937;28;62708;-64
2022/01/07 02:36:42;;;;;;;;;12.25;9.00;;;;;4.74;69.39;100959.09;5038425;28;45462;-65
2022/01/07 02:39:08;;;;;;;;;10.00;9.00;;;;;4.75;69.43;100950.38;5037912;28;60634;-65
2022/01/07 02:41:33;;;;;;;;;9.25;9.00;;;;;4.76;69.72;100944.22;5053224;28;65490;-64
2022/01/07 02:43:58;;;;;;;;;9.25;7.50;;;;;4.78;69.34;100938.91;5037601;28;64036;-64
2022/01/07 02:46:24;;;;;;;;;11.00;8.00;;;;;4.79;69.29;100940.59;5038490;28;45399;-63
2022/01/07 02:48:49;;;;;;;;;12.50;8.50;;;;;4.79;69.68;100943.19;5037571;28;66329;-66
2022/01/07 02:51:14;;;;;;;;;10.00;7.00;;;;;4.80;69.54;100937.88;5053851;28;45530;-63
2022/01/07 02:53:40;;;;;;;;;12.75;9.25;;;;;4.81;69.47;100938.75;5037429;28;67710;-61
2022/01/07 02:56:05;;;;;;;;;13.00;8.50;;;;;4.82;69.78;100930.00;5038022;28;45372;-64
2022/01/07 02:58:31;;;;;;;;;11.00;9.75;;;;;4.82;69.47;100928.22;5038368;28;45674;-62
2022/01/07 03:00:56;;;;;;;;;9.25;8.00;;;;;4.81;69.89;100923.94;5036446;28;62793;-64
2022/01/07 03:03:21;;;;;;;;;10.25;7.00;;;;;4.83;69.53;100924.69;5037768;28;52674;-63
2022/01/07 03:05:47;;;;;;;;;15.00;9.00;;;;;4.83;69.60;100922.09;5036086;28;73502;-64
2022/01/07 03:08:12;;;;;;;;;9.50;9.00;;;;;4.85;69.69;100927.22;5037339;28;65657;-64
2022/01/07 03:10:38;;;;;;;;;8.75;7.25;;;;;4.86;69.73;100929.72;5037410;28;63258;-63
2022/01/07 03:13:03;;;;;;;;;9.00;8.75;;;;;4.87;70.00;100921.00;5037940;28;45960;-63
2022/01/07 03:15:29;;;;;;;;;9.50;8.00;;;;;4.89;69.81;100926.13;5037785;28;45322;-65
2022/01/07 03:17:55;;;;;;;;;7.50;7.50;;;;;4.90;69.57;100927.81;5036755;28;45301;-65
2022/01/07 03:20:20;;;;;;;;;7.75;7.00;;;;;4.90;70.06;100923.41;5053641;28;45505;-63
2022/01/07 03:22:46;;;;;;;;;7.75;7.50;;;;;4.92;69.79;100927.69;5053145;28;46065;-62
2022/01/07 03:25:12;;;;;;;;;8.00;8.00;;;;;4.95;69.92;100930.97;5037697;28;47817;-65
2022/01/07 03:27:37;;;;;;;;;9.25;8.50;;;;;4.97;69.72;100933.47;5053522;28;45238;-61
2022/01/07 03:30:03;;;;;;;;;12.25;7.25;;;;;4.96;69.71;100935.25;5036680;28;45324;-63
2022/01/07 03:32:29;;;;;;;;;9.00;6.50;;;;;4.98;70.01;100924.75;5036245;28;47568;-66
2022/01/07 03:34:55;;;;;;;;;9.50;7.75;;;;;5.00;69.93;100920.28;5037065;28;63447;-65
2022/01/07 03:37:20;;;;;;;;;12.00;10.25;;;;;5.01;69.99;100917.59;5036972;28;63338;-63
2022/01/07 03:39:46;;;;;;;;;14.00;10.25;;;;;5.03;69.86;100912.28;5037019;28;62731;-63
2022/01/07 03:42:11;;;;;;;;;9.50;7.50;;;;;5.06;69.81;100909.50;5037428;28;45443;-65
2022/01/07 03:44:36;;;;;;;;;10.50;9.00;;;;;5.07;69.49;100908.56;5037448;28;45399;-62
2022/01/07 03:47:02;;;;;;;;;9.75;8.00;;;;;5.06;69.49;100904.28;5036969;28;57541;-62
2022/01/07 03:49:28;;;;;;;;;10.00;9.00;;;;;5.07;69.77;100903.38;5053066;28;45340;-62
2022/01/07 03:51:53;;;;;;;;;10.50;9.00;;;;;5.09;69.78;100904.13;5036478;28;63650;-62
2022/01/07 03:54:18;;;;;;;;;10.00;10.00;;;;;5.08;69.64;100893.75;5034339;28;65580;-64
2022/01/07 03:56:44;;;;;;;;;8.25;7.00;;;;;5.08;70.06;100892.03;5037421;28;45494;-64
2022/01/07 03:59:09;;;;;;;;;11.25;9.00;;;;;5.10;69.74;100886.69;5052628;28;49235;-65
2022/01/07 04:01:34;;;;;;;;;15.50;7.00;;;;;5.09;69.53;100898.91;5035412;28;64549;-64
2022/01/07 04:04:00;;;;;;;;;10.00;7.50;;;;;5.09;69.46;100895.44;5036197;28;69531;-64
2022/01/07 04:06:25;;;;;;;;;9.00;7.50;;;;;5.08;69.47;100891.16;5036454;28;61399;-65
2022/01/07 04:08:51;;;;;;;;;10.00;8.00;;;;;5.06;69.75;100886.06;5036511;28;64730;-65
2022/01/07 04:11:16;;;;;;;;;7.00;6.50;;;;;5.06;69.60;100886.06;5051845;28;68157;-63
2022/01/07 04:13:41;;;;;;;;;7.25;6.25;;;;;5.05;69.42;100873.97;5051837;28;68336;-63
2022/01/07 04:16:07;;;;;;;;;9.50;8.00;;;;;5.05;69.43;100881.78;5037141;28;45260;-63
2022/01/07 04:18:32;;;;;;;;;13.25;7.00;;;;;5.05;69.34;100881.78;5036263;28;67830;-65
2022/01/07 04:20:57;;;;;;;;;12.75;7.25;;;;;5.05;69.43;100887.81;5051624;28;71576;-65
2022/01/07 04:23:23;;;;;;;;;9.00;7.50;;;;;5.05;69.54;100879.19;5034709;28;66951;-65
2022/01/07 04:25:48;;;;;;;;;9.50;7.50;;;;;5.07;69.29;100881.66;5036098;28;62178;-62
2022/01/07 04:28:14;;;;;;;;;8.25;7.00;;;;;5.09;69.38;100877.22;5035106;28;58193;-63
2022/01/07 04:30:43;;;;;;;;;8.75;6.25;;;;;5.09;69.23;100880.66;5034654;28;70436;-64
2022/01/07 04:33:10;;;;;;;;;9.00;6.00;;;;;5.11;69.20;100878.81;5036710;28;45403;-62
2022/01/07 04:35:36;;;;;;;;;9.25;7.00;;;;;5.13;68.81;100874.34;5035794;28;45468;-65
2022/01/07 04:38:02;;;;;;;;;8.75;8.25;;;;;5.14;68.79;100873.41;5052354;28;45349;-65
2022/01/07 04:40:27;;;;;;;;;7.25;4.00;;;;;5.14;68.84;100863.00;5052098;28;46548;-64
2022/01/07 04:42:52;;;;;;;;;6.00;2.00;;;;;5.15;68.66;100877.69;5036459;28;45358;-63
2022/01/07 04:45:18;;;;;;;;;9.75;7.75;;;;;5.15;68.92;100875.09;5035547;28;45564;-65
2022/01/07 04:47:43;;;;;;;;;5.75;4.00;;;;;5.17;68.62;100875.00;5052290;28;45343;-63
2022/01/07 04:50:12;;;;;;;;;7.00;7.00;;;;;5.19;68.58;100878.34;5036633;28;45984;-65
2022/01/07 04:52:38;;;;;;;;;8.50;7.00;;;;;5.20;68.47;100887.81;5035345;28;45776;-65
2022/01/07 04:55:04;;;;;;;;;11.00;7.00;;;;;5.23;68.49;100884.22;5036413;28;45304;-64
2022/01/07 04:57:30;;;;;;;;;8.75;6.50;;;;;5.21;67.97;100884.28;5036476;28;45552;-62
2022/01/07 04:59:55;;;;;;;;;7.00;6.00;;;;;5.23;68.50;100895.47;5036284;28;46298;-63
2022/01/07 05:02:20;;;;;;;;;9.00;7.50;;;;;5.24;68.52;100893.72;5035473;28;65579;-63
2022/01/07 05:04:46;;;;;;;;;7.50;7.00;;;;;5.26;68.53;100894.47;5035710;28;60256;-64
2022/01/07 05:07:12;;;;;;;;;8.00;6.00;;;;;5.28;68.32;100890.00;5052029;28;45320;-64
2022/01/07 05:09:37;;;;;;;;;8.00;5.00;;;;;5.31;68.70;100895.84;5034389;28;63988;-64
2022/01/07 05:12:03;;;;;;;;;5.75;3.75;;;;;5.34;68.32;100894.81;5051790;28;45474;-63
2022/01/07 05:14:28;;;;;;;;;7.75;7.75;;;;;5.34;68.18;100894.81;5036348;28;45355;-65
2022/01/07 05:16:54;;;;;;;;;7.00;6.75;;;;;5.35;68.37;100880.84;5051077;28;60951;-61
2022/01/07 05:19:19;;;;;;;;;9.00;8.00;;;;;5.39;68.00;100889.31;5034860;28;45387;-65
2022/01/07 05:21:45;;;;;;;;;10.50;7.25;;;;;5.39;67.82;100879.72;5035961;28;52483;-64
2022/01/07 05:24:10;;;;;;;;;10.25;6.00;;;;;5.38;67.96;100880.66;5035440;28;61680;-65
2022/01/07 05:26:35;;;;;;;;;8.00;7.00;;;;;5.37;67.79;100876.38;5036095;28;45354;-64
2022/01/07 05:29:01;;;;;;;;;8.25;7.00;;;;;5.38;68.23;100885.03;5034773;28;45420;-65
2022/01/07 05:31:26;;;;;;;;;8.00;5.25;;;;;5.38;68.07;100875.44;5034545;28;50598;-62
2022/01/07 05:33:52;;;;;;;;;9.50;7.00;;;;;5.39;68.06;100887.53;5036028;28;45479;-64
2022/01/07 05:36:18;;;;;;;;;10.25;7.25;;;;;5.41;67.79;100882.25;5034768;28;45595;-63
2022/01/07 05:38:44;;;;;;;;;9.00;7.25;;;;;5.41;67.63;100880.47;5051379;28;45411;-64
2022/01/07 05:41:09;;;;;;;;;8.00;5.25;;;;;5.40;67.58;100881.41;5050447;28;72173;-62
2022/01/07 05:43:34;;;;;;;;;8.50;6.75;;;;;5.41;68.03;100890.06;5035228;28;57282;-66
2022/01/07 05:46:00;;;;;;;;;8.50;7.25;;;;;5.41;67.60;100890.06;5035164;28;65769;-62
2022/01/07 05:48:25;;;;;;;;;7.00;4.00;;;;;5.43;67.60;100883.81;5050412;28;68878;-63
2022/01/07 05:50:50;;;;;;;;;7.50;5.25;;;;;5.44;67.71;100887.28;5034948;28;66613;-63
2022/01/07 05:53:16;;;;;;;;;6.75;4.50;;;;;5.44;67.83;100885.50;5033805;28;64637;-65
2022/01/07 05:55:41;;;;;;;;;8.25;7.00;;;;;5.43;68.11;100872.56;5033516;28;65493;-63
2022/01/07 05:58:07;;;;;;;;;9.00;7.50;;;;;5.44;67.76;100866.44;5033814;28;67527;-63
2022/01/07 06:00:32;;;;;;;;;15.25;8.00;;;;;5.43;68.17;100878.63;5035547;28;45300;-62
2022/01/07 06:02:57;;;;;;;;;10.00;8.00;;;;;5.45;67.86;100876.75;5034750;28;60712;-63
2022/01/07 06:05:23;;;;;;;;;9.25;5.50;;;;;5.44;68.05;100874.25;5033302;28;68859;-63
2022/01/07 06:07:48;;;;;;;;;4.50;4.50;;;;;5.44;67.51;100879.47;5035442;28;45320;-64
2022/01/07 06:10:13;;;;;;;;;9.00;7.00;;;;;5.44;67.64;100879.47;5034467;28;66074;-62
2022/01/07 06:12:39;;;;;;;;;8.25;7.00;;;;;5.43;67.77;100862.97;5034870;28;62905;-62
2022/01/07 06:15:06;;;;;;;;;7.75;7.00;;;;;5.43;67.48;100856.94;5034572;28;61628;-62
2022/01/07 06:17:31;;;;;;;;;4.00;4.00;;;;;5.42;67.72;100869.13;5035129;28;45458;-62
2022/01/07 06:19:56;;;;;;;;;10.75;8.00;;;;;5.39;67.92;100864.09;5053970;28;51608;-63
2022/01/07 06:22:22;;;;;;;;;6.75;4.50;;;;;5.38;67.73;100874.63;5053345;28;66244;-64
2022/01/07 06:24:47;;;;;;;;;7.25;6.75;;;;;5.37;67.79;100876.38;5037929;28;65198;-67
2022/01/07 06:27:12;;;;;;;;;8.00;6.75;;;;;5.36;67.79;100861.66;5037780;28;72029;-65
2022/01/07 06:29:38;;;;;;;;;9.75;5.75;;;;;5.37;67.64;100865.13;5053174;28;68494;-62
2022/01/07 06:32:05;;;;;;;;;5.00;5.00;;;;;5.34;67.87;100876.56;5038496;28;45250;-64
2022/01/07 06:34:30;;;;;;;;;10.50;7.75;;;;;5.33;67.67;100874.88;5038267;28;45648;-63
2022/01/07 06:36:55;;;;;;;;;6.75;5.25;;;;;5.32;67.88;100871.47;5038263;28;45434;-64
2022/01/07 06:39:22;;;;;;;;;8.75;6.00;;;;;5.32;67.94;100870.59;5037022;28;45440;-62
2022/01/07 06:41:49;;;;;;;;;10.75;7.00;;;;;5.31;68.03;100869.78;5036856;28;45434;-63
2022/01/07 06:44:14;;;;;;;;;7.00;6.50;;;;;5.31;68.27;100868.94;5038290;28;45590;-62
2022/01/07 06:46:40;;;;;;;;;5.25;5.25;;;;;5.29;68.00;100866.44;5038165;28;45595;-65
2022/01/07 06:49:05;;;;;;;;;9.25;7.00;;;;;5.31;68.15;100875.00;5037643;28;58637;-65
2022/01/07 06:51:31;;;;;;;;;7.50;6.75;;;;;5.32;68.32;100875.81;5037351;28;57529;-63
2022/01/07 06:53:57;;;;;;;;;4.75;4.75;;;;;5.32;68.22;100870.59;5038365;28;45215;-63
2022/01/07 06:56:22;;;;;;;;;7.75;7.00;;;;;5.33;68.10;100869.69;5053405;28;47680;-62
2022/01/07 06:58:48;;;;;;;;;9.25;7.00;;;;;5.33;68.53;100872.28;5038133;28;45259;-62
2022/01/07 07:01:13;;;;;;;;;8.50;8.00;;;;;5.33;68.72;100874.88;5037553;28;62418;-62
2022/01/07 07:03:40;;;;;;;;;9.25;7.50;;;;;5.32;68.62;100861.03;5037153;28;65359;-62
2022/01/07 07:06:06;;;;;;;;;6.25;4.50;;;;;5.31;68.68;100859.38;5037961;28;46347;-63
2022/01/07 07:08:31;;;;;;;;;9.50;7.75;;;;;5.36;68.91;100853.84;5053477;28;45472;-62
2022/01/07 07:10:56;;;;;;;;;12.50;9.00;;;;;5.37;68.87;100858.13;5036048;28;60925;-64
2022/01/07 07:13:22;;;;;;;;;14.00;9.50;;;;;5.39;68.81;100858.06;5020163;28;45416;-63
2022/01/07 07:15:47;;;;;;;;;5.50;4.00;;;;;5.40;68.92;100857.94;5036988;28;69029;-64
2022/01/07 07:18:14;;;;;;;;;8.50;7.75;;;;;5.40;68.84;100870.16;5036708;28;69224;-62
2022/01/07 07:20:39;;;;;;;;;8.75;7.50;;;;;5.42;68.79;100869.13;5037886;28;45366;-63
2022/01/07 07:23:05;;;;;;;;;10.75;8.00;;;;;5.41;69.05;100867.44;5037541;28;45459;-66
2022/01/07 07:25:30;;;;;;;;;7.75;7.25;;;;;5.44;69.10;100875.06;5052050;28;66385;-65
2022/01/07 07:27:55;;;;;;;;;9.75;8.00;;;;;5.46;69.21;100878.41;5036860;28;60945;-62
2022/01/07 07:30:21;;;;;;;;;9.50;7.00;;;;;5.46;69.15;100891.47;5051196;28;56720;-64
2022/01/07 07:32:48;;;;;;;;;10.25;10.00;;;;;5.47;69.36;100890.53;5037266;28;45559;-63
2022/01/07 07:37:44;;;;;;;;;6.75;5.00;;;;;5.51;69.33;100885.97;5036633;28;45517;-63
2022/01/07 07:40:10;;;;;;;;;10.75;7.00;;;;;5.54;69.60;100882.34;5052894;28;45413;-61
2022/01/07 07:42:36;;;;;;;;;10.00;7.75;;;;;5.54;69.50;100880.59;5037342;28;45395;-66
2022/01/07 07:45:01;;;;;;;;;9.75;9.50;;;;;5.59;69.62;100883.72;5036038;28;46456;-63
2022/01/07 07:47:27;;;;;;;;;9.25;7.25;;;;;5.61;69.69;100888.84;5035872;28;45337;-63
2022/01/07 07:49:53;;;;;;;;;9.25;8.00;;;;;5.65;69.75;100882.50;5037378;28;46819;-63
2022/01/07 07:52:18;;;;;;;;;9.75;5.00;;;;;5.67;69.70;100890.22;5052139;28;50725;-64
2022/01/07 07:54:44;;;;;;;;;9.25;7.75;;;;;5.68;69.82;100887.53;5036382;28;45349;-63
2022/01/07 07:57:09;;;;;;;;;6.75;6.75;;;;;5.71;69.86;100895.16;5036432;28;67648;-64
2022/01/07 07:59:34;;;;;;;;;11.25;9.50;;;;;5.74;70.07;100892.38;5037241;28;45321;-63
2022/01/07 08:02:01;;;;;;;;;10.50;9.50;;;;;5.77;69.69;100897.41;5035149;28;66704;-63
2022/01/07 08:04:27;;;;;;;;;14.00;9.75;;;;;5.81;69.87;100898.03;5035940;28;45457;-62
2022/01/07 08:06:52;;;;;;;;;13.00;9.25;;;;;5.83;69.85;100895.34;5036981;28;45414;-65
2022/01/07 08:09:18;;;;;;;;;14.75;7.00;;;;;5.85;70.13;100893.44;5037264;28;45646;-63
2022/01/07 08:11:57;;;;;;;;;9.00;6.00;;;;;5.85;70.37;100893.44;5037137;28;45588;-64
2022/01/07 08:17:06;;;;;;;;;11.25;8.00;;;;;5.89;70.58;100892.31;5037186;28;45786;-66
2022/01/07 08:19:33;;;;;;;;;8.00;8.00;;;;;5.89;70.52;100890.56;5037140;28;45324;-65
2022/01/07 08:21:58;;;;;;;;;6.00;5.00;;;;;5.92;70.64;100884.31;5035487;28;45605;-64
2022/01/07 08:24:23;;;;;;;;;8.00;4.75;;;;;5.93;70.74;100881.63;5035717;28;46492;-64
2022/01/07 08:26:49;;;;;;;;;9.00;5.50;;;;;5.96;70.89;100877.97;5036411;28;56382;-65
2022/01/07 08:29:15;;;;;;;;;8.00;7.00;;;;;5.97;70.81;100900.50;5052430;28;45319;-64
2022/01/07 08:36:50;;;;;;;;;7.75;7.50;;;;;6.02;71.54;100901.09;5035630;28;45897;-62
2022/01/07 08:39:16;;;;;;;;;7.75;6.00;;;;;6.05;71.70;100892.25;5036664;28;45407;-66
2022/01/07 08:41:42;;;;;;;;;10.50;5.00;;;;;6.06;71.74;100904.34;5050843;28;65909;-65
2022/01/07 08:44:07;;;;;;;;;8.00;8.00;;;;;6.07;71.81;100893.81;5034848;28;48255;-62
2022/01/07 08:46:33;;;;;;;;;9.00;7.75;;;;;6.12;71.89;100892.66;5051909;28;45340;-63
2022/01/07 08:48:58;;;;;;;;;8.75;7.25;;;;;6.12;72.19;100874.41;5052925;28;45359;-63
2022/01/07 08:51:25;;;;;;;;;7.00;5.00;;;;;6.13;71.99;100881.31;5048789;28;45474;-64
2022/01/07 08:53:51;;;;;;;;;17.25;16.25;;;;;6.14;72.12;100891.63;5040629;28;45452;-65
2022/01/07 08:56:16;;;;;;;;;11.00;9.50;;;;;6.14;72.39;100891.63;5043702;28;68684;-64
2022/01/07 08:58:42;;;;;;;;;7.50;6.75;;;;;6.18;72.03;100884.44;5044966;28;45243;-63
2022/01/07 09:01:07;;;;;;;;;9.00;3.75;;;;;6.16;72.18;100873.28;5045839;28;45669;-64
2022/01/07 09:03:33;;;;;;;;;6.75;4.00;;;;;6.18;72.04;100874.84;5042520;28;71235;-63
2022/01/07 09:05:58;;;;;;;;;3.75;3.00;;;;;6.18;72.02;100868.81;5044893;28;67841;-63
2022/01/07 09:08:24;;;;;;;;;4.25;4.00;;;;;6.20;71.66;100851.28;5064270;28;45463;-61
2022/01/07 09:10:49;;;;;;;;;5.00;4.00;;;;;6.18;71.85;100851.34;5048981;28;45445;-65
2022/01/07 09:13:15;;;;;;;;;7.00;4.25;;;;;6.20;72.01;100841.66;5050428;28;47033;-63
2022/01/07 09:15:40;;;;;;;;;8.75;8.00;;;;;6.22;71.99;100836.34;5050958;28;45481;-66
2022/01/07 09:18:12;;;;;;;;;8.00;4.75;;;;;6.23;71.74;100820.59;5068739;28;60684;-65
2022/01/07 09:20:38;;;;;;;;;11.25;9.00;;;;;6.23;71.83;100812.75;5047809;28;45291;-63
2022/01/07 09:23:04;;;;;;;;;5.25;4.75;;;;;6.21;72.17;100842.50;5041375;28;45486;-63
2022/01/07 09:25:29;;;;;;;;;9.50;8.00;;;;;6.22;72.33;100849.41;5044196;28;45960;-65
2022/01/07 09:27:54;;;;;;;;;16.75;13.25;;;;;6.24;72.46;100863.19;5040583;28;45720;-63
2022/01/07 09:30:20;;;;;;;;;12.50;11.00;;;;;6.27;72.37;100878.66;5045618;28;45481;-62
2022/01/07 09:32:45;;;;;;;;;9.00;7.00;;;;;6.27;72.49;100880.41;5047365;28;71980;-63
2022/01/07 09:35:11;;;;;;;;;15.50;11.50;;;;;6.30;72.63;100883.66;5041978;28;61051;-62
2022/01/07 09:37:37;;;;;;;;;7.25;6.25;;;;;6.32;72.42;100887.00;5047122;28;45482;-64
2022/01/07 09:40:03;;;;;;;;;7.50;7.50;;;;;6.36;72.40;100893.69;5046841;28;45445;-63
2022/01/07 09:42:28;;;;;;;;;8.50;7.50;;;;;6.41;72.26;100896.00;5040316;28;46244;-63
2022/01/07 09:44:55;;;;;;;;;8.00;7.50;;;;;6.43;72.40;100904.56;5048178;28;45465;-62
2022/01/07 09:47:21;;;;;;;;;8.00;7.25;;;;;6.46;72.39;100893.09;5063159;28;45581;-63
2022/01/07 09:49:46;;;;;;;;;8.75;8.25;;;;;6.48;72.41;100892.06;5060813;28;45441;-63
2022/01/07 09:52:12;;;;;;;;;6.25;5.25;;;;;6.50;72.35;100892.81;5064069;28;72349;-64
2022/01/07 09:54:38;;;;;;;;;7.25;5.00;;;;;6.53;72.32;100896.97;5051087;28;65681;-63
2022/01/07 09:57:05;;;;;;;;;6.75;5.50;;;;;6.56;71.99;100899.38;5048894;28;45484;-63
2022/01/07 09:59:30;;;;;;;;;6.50;6.50;;;;;6.58;72.05;100896.69;5051052;28;45651;-65
2022/01/07 10:02:00;;;;;;;;;9.75;8.00;;;;;6.58;71.79;100889.69;5038793;28;73879;-62
2022/01/07 10:04:26;;;;;;;;;11.75;9.00;;;;;6.62;71.83;100898.97;5040447;28;45327;-63
2022/01/07 10:07:08;;;;;;;;;9.25;7.50;;;;;6.63;71.61;100887.59;5047609;28;45529;-62
2022/01/07 10:09:34;;;;;;;;;7.75;5.25;;;;;6.66;71.31;100889.16;5045630;28;47100;-65
2022/01/07 10:12:02;;;;;;;;;8.25;5.50;;;;;6.68;71.74;100887.28;5045783;28;50670;-63
2022/01/07 10:14:30;;;;;;;;;5.75;4.00;;;;;6.75;71.72;100879.91;5042744;28;45404;-65
2022/01/07 10:17:00;;;;;;;;;8.50;6.25;;;;;6.86;71.86;100880.00;5042336;28;45525;-65
2022/01/07 10:19:36;;;;;;;;;7.75;5.25;;;;;7.00;71.75;100883.44;5055666;28;45533;-64
2022/01/07 10:22:05;;;;;;;;;4.75;4.00;;;;;7.20;71.77;100875.09;5045368;28;45602;-62
2022/01/07 10:24:31;;;;;;;;;8.00;5.00;;;;;7.40;71.29;100873.72;5042334;28;45562;-64
2022/01/07 10:27:12;;;;;;;;;9.00;7.00;;;;;7.64;71.30;100862.47;5043195;28;45865;-65
2022/01/07 10:29:41;;;;;;;;;6.25;5.00;;;;;7.85;70.58;100856.63;5050397;28;45580;-63
2022/01/07 10:32:25;;;;;;;;;8.00;8.00;;;;;8.04;69.68;100843.06;5050877;28;46273;-64
2022/01/07 10:35:01;;;;;;;;;8.75;5.25;;;;;8.14;69.50;100845.84;5047007;28;45467;-61
2022/01/07 10:37:26;;;;;;;;;9.25;7.25;;;;;8.20;68.92;100845.41;5044349;28;45617;-64
2022/01/07 10:39:51;;;;;;;;;9.00;6.75;;;;;8.23;68.34;100841.72;5050785;28;53174;-64
2022/01/07 10:42:22;;;;;;;;;8.00;6.50;;;;;8.24;68.41;100849.44;5052037;28;73742;-65
2022/01/07 10:45:01;;;;;;;;;9.75;7.25;;;;;8.26;67.93;100850.16;5049076;28;45957;-63
2022/01/07 10:47:28;;;;;;;;;8.25;6.25;;;;;8.23;67.80;100844.34;5053443;28;45329;-65
2022/01/07 10:50:22;;;;;;;;;8.50;6.75;;;;;8.20;67.68;100834.94;5069275;28;45446;-63
2022/01/07 10:52:47;;;;;;;;;10.75;10.50;;;;;8.24;67.71;100835.53;5040419;28;45426;-64
2022/01/07 10:55:20;;;;;;;;;109.75;93.00;;;;;8.26;68.06;100836.25;5043150;28;46080;-65
2022/01/07 10:57:47;;;;;;;;;19.50;16.50;;;;;8.35;68.25;100832.97;5044330;28;45633;-64
2022/01/07 11:00:17;;;;;;;;;10.25;7.25;;;;;8.44;67.75;100829.66;5043042;28;45639;-62
2022/01/07 11:02:42;;;;;;;;;7.25;6.50;;;;;8.51;67.96;100827.44;5040828;28;45452;-65
2022/01/07 11:05:08;;;;;;;;;9.00;6.00;;;;;8.60;68.27;100818.03;5042287;28;68741;-64
2022/01/07 11:07:34;;;;;;;;;9.00;7.00;;;;;8.67;67.80;100827.09;5044611;28;45446;-65
2022/01/07 11:09:59;;;;;;;;;6.75;6.75;;;;;8.71;67.49;100841.63;5044172;28;45446;-63
2022/01/07 11:12:25;;;;;;;;;8.25;7.50;;;;;8.74;67.38;100836.16;5047909;28;57145;-63
2022/01/07 11:14:51;;;;;;;;;7.00;6.00;;;;;8.76;67.08;100842.13;5044425;28;46108;-64
2022/01/07 11:17:21;;;;;;;;;6.00;5.00;;;;;8.76;67.14;100834.25;5048296;28;45505;-62
2022/01/07 11:19:51;;;;;;;;;6.00;5.25;;;;;8.74;67.02;100830.94;5062697;28;45401;-63
2022/01/07 11:22:17;;;;;;;;;11.00;4.75;;;;;8.72;66.65;100830.22;5060317;28;45585;-63
2022/01/07 11:24:48;;;;;;;;;5.25;5.25;;;;;8.71;66.54;100827.72;5024451;28;57382;-65
2022/01/07 11:27:20;;;;;;;;;7.75;5.75;;;;;8.68;66.74;100834.00;5048977;28;45536;-64
2022/01/07 11:30:04;;;;;;;;;7.00;5.50;;;;;8.67;66.50;100818.44;5060302;28;45541;-63
2022/01/07 11:32:42;;;;;;;;;5.50;4.00;;;;;8.65;66.18;100815.91;5047510;28;45485;-66
2022/01/07 11:35:16;;;;;;;;;4.00;2.75;;;;;8.63;65.91;100819.59;5044552;28;45709;-63